Buoy 17652

sailwx.info

Track history (hours):
 
Tides and Currents Weather Stations Pressure Air Temp Water Temp Dewpoint Dewpoint Depression Visibility Wind Speed Wind Dir Waves Ship Positions

Drifting buoy 17652

Last reported at 2016-Jul-28 00:00 UTC. Time now 2016-Jul-28 01:00 UTC.
Position S 41°27' E 028°02'.

Barometer 1021.7 mb
Water temperature 10.8 ° C

Date/timePositionNaut miles runAvg speedWind from/ knotsBaromVisibWave heightAir tempDewpointWater temp
2016-Jul-28 00:00S 41°27' E 028°02'2 0.5 1021.7 10.8
2016-Jul-27 21:00S 41°28' E 028°04'2 1.0 1024.4 10.8
2016-Jul-27 19:00S 41°28' E 028°07'3 1.5 1026.2 10.5
2016-Jul-27 17:00S 41°28' E 028°11'0 0.3 1027.1 10.7
2016-Jul-27 16:00S 41°28' E 028°11'4 2.1 1027.4 10.6
2016-Jul-27 14:00S 41°27' E 028°16'0 0.0 1028.0 10.5
2016-Jul-27 12:00S 41°27' E 028°16'6 1.2 1028.5 10.4
2016-Jul-27 07:00S 41°25' E 028°24'3 2.7 1032.1 10.9
2016-Jul-27 06:00S 41°24' E 028°27'0 0.0 1032.3 10.9
2016-Jul-27 05:00S 41°24' E 028°27'1 0.6 1032.5 11.0
2016-Jul-27 04:00S 41°24' E 028°27'3 3.1 1032.4 10.8
2016-Jul-27 03:00S 41°22' E 028°31'0 0.0 1032.7 10.9
2016-Jul-27 02:00S 41°22' E 028°31'3 0.6 1032.9 10.9
2016-Jul-26 21:00S 41°20' E 028°33'2 2.2 1035.2 12.4
2016-Jul-26 20:00S 41°18' E 028°36'1 1.1 1035.5 13.1
2016-Jul-26 19:00S 41°17' E 028°36'4 1.2 1036.1 13.2
2016-Jul-26 16:00S 41°15' E 028°40'2 1.2 1036.6 13.4
2016-Jul-26 14:00S 41°13' E 028°42'0 0.0 1036.6 13.4
2016-Jul-26 13:00S 41°13' E 028°42'4 0.7 1036.4 13.4
2016-Jul-26 07:00S 41°12' E 028°48'2 1.7 1039.1 13.5
2016-Jul-26 06:00S 41°11' E 028°50'1 1.3 1038.9 13.5
2016-Jul-26 05:00S 41°11' E 028°52'0 0.0 1039.3 13.6
2016-Jul-26 04:00S 41°11' E 028°52'0 0.2 1039.6 13.6
2016-Jul-26 03:00S 41°11' E 028°52'1 0.3 1039.5 13.6
2016-Jul-26 00:00S 41°10' E 028°53'2 2.3 1040.2 13.7
2016-Jul-25 23:00S 41°10' E 028°56'2 1.7 1040.7 13.6
2016-Jul-25 22:00S 41°10' E 028°54'2 0.8 1041.0 13.6
2016-Jul-25 20:00S 41°10' E 028°56'3 0.9 1041.2 13.4
2016-Jul-25 17:00S 41°08' E 028°59'1 0.5 1041.4 13.3
2016-Jul-25 16:00S 41°09' E 028°59'5 5.1 1041.3 13.3
2016-Jul-25 15:00S 41°06' E 029°05'0 0.0 1040.9 13.3
2016-Jul-25 14:00S 41°06' E 029°05'0 0.0 1040.9 13.3
2016-Jul-25 13:00S 41°06' E 029°05'0 0.0 1040.8 13.4
2016-Jul-25 11:00S 41°06' E 029°05'0 0.0 1041.1 13.4
2016-Jul-25 08:00S 41°06' E 029°05'1 1.1 1040.8 13.3
2016-Jul-25 07:00S 41°05' E 029°06'0 0.5 1040.3 13.4
2016-Jul-25 06:00S 41°05' E 029°07'1 1.3 1039.6 13.4
2016-Jul-25 05:00S 41°05' E 029°08'1 0.6 1038.8 13.5
2016-Jul-25 03:00S 41°04' E 029°10'1 0.3 1037.5 13.5
2016-Jul-25 00:00S 41°04' E 029°11'1 1.2 1036.2 13.6
2016-Jul-24 23:00S 41°04' E 029°12'0 0.1 1035.6 13.7
2016-Jul-24 19:00S 41°04' E 029°12'1 0.5 1033.4 13.7
2016-Jul-24 17:00S 41°05' E 029°13'0 0.4 1031.5 13.7
2016-Jul-24 16:00S 41°05' E 029°13'1 0.4 1030.7 13.6
2016-Jul-24 14:00S 41°06' E 029°12'0 0.0 1028.7 13.6
2016-Jul-24 13:00S 41°06' E 029°12'3 1.3 1027.9 13.6
2016-Jul-24 11:00S 41°07' E 029°09'0 0.0 1026.9 13.4
2016-Jul-24 08:00S 41°07' E 029°09'1 0.2 1025.4 13.4
2016-Jul-24 05:00S 41°08' E 029°09'1 0.7 1022.6 13.5
2016-Jul-24 04:00S 41°08' E 029°10'0 0.5 1021.7 13.5
2016-Jul-24 03:00S 41°08' E 029°09'1 0.5 1020.9 13.5
2016-Jul-24 02:00S 41°09' E 029°09'0 0.0 1020.3 13.5
2016-Jul-24 01:00S 41°09' E 029°09'1 1.2 1020.0 13.5
2016-Jul-24 00:00S 41°09' E 029°08'2 2.2 1019.9 13.5
2016-Jul-23 23:00S 41°08' E 029°05'1 0.3 1019.7 13.4
2016-Jul-23 19:00S 41°08' E 029°03'1 1.0 1019.1 13.1
2016-Jul-23 18:00S 41°08' E 029°02'1 0.9 1018.9 13.1
2016-Jul-23 17:00S 41°08' E 029°01'0 0.4 1018.4 13.1
2016-Jul-23 16:00S 41°08' E 029°01'1 0.3 1017.7 13.0
2016-Jul-23 14:00S 41°08' E 028°60'0 0.0 1016.4 12.9
2016-Jul-23 13:00S 41°08' E 028°60'0 0.2 1015.9 12.9
2016-Jul-23 12:00S 41°08' E 029°00'0 0.0 1015.1 13.0
2016-Jul-23 11:00S 41°08' E 029°00'4 0.9 1014.7 13.1
2016-Jul-23 07:00S 41°11' E 029°01'0 0.2 1012.3 13.2
2016-Jul-23 05:00S 41°12' E 029°01'1 0.9 1010.3 13.2
2016-Jul-23 04:00S 41°12' E 029°00'1 0.8 1009.4 13.2
2016-Jul-23 03:00S 41°13' E 029°00'1 1.3 1008.5 13.3
2016-Jul-23 02:00S 41°13' E 028°59'0 0.0 1008.3 13.3
2016-Jul-23 01:00S 41°13' E 028°59'3 1.4 1008.2 13.3
2016-Jul-22 23:00S 41°13' E 028°55'0 0.0 1007.7 13.4
2016-Jul-22 21:00S 41°13' E 028°55'3 1.6 1008.2 13.5
2016-Jul-22 19:00S 41°10' E 028°54'0 0.0 1008.7 13.5
2016-Jul-22 18:00S 41°10' E 028°54'3 0.9 1008.8 13.5
2016-Jul-22 15:00S 41°07' E 028°53'1 1.1 1009.6 13.5
2016-Jul-22 14:00S 41°06' E 028°52'2 1.8 1010.2 13.5
2016-Jul-22 13:00S 41°05' E 028°52'0 0.2 1010.7 13.4
2016-Jul-22 12:00S 41°05' E 028°52'4 0.9 1010.9 13.3
2016-Jul-22 07:00S 41°01' E 028°50'3 1.4 1013.8 12.3
2016-Jul-22 05:00S 40°58' E 028°48'0 0.0 1014.1 11.7
2016-Jul-22 04:00S 40°58' E 028°48'1 1.3 1014.0 11.5
2016-Jul-22 03:00S 40°57' E 028°47'1 1.0 1014.0 11.5
2016-Jul-22 02:00S 40°57' E 028°46'3 0.9 1014.2 11.5
2016-Jul-21 23:00S 40°54' E 028°45'2 0.8 1015.4 11.5
2016-Jul-21 21:00S 40°53' E 028°46'0 0.0 1015.6 11.6
2016-Jul-21 20:00S 40°53' E 028°46'0 0.1 1016.2 11.5
2016-Jul-21 18:00S 40°53' E 028°46'0 0.0 1016.3 11.5
2016-Jul-21 17:00S 40°53' E 028°46'1 0.8 1016.1 11.4
2016-Jul-21 16:00S 40°52' E 028°46'0 0.4 1015.8 11.4
2016-Jul-21 15:00S 40°52' E 028°45'0 0.0 1015.5 11.4
2016-Jul-21 14:00S 40°52' E 028°45'1 1.0 1014.9 11.4
2016-Jul-21 13:00S 40°53' E 028°44'0 0.1 1014.7 11.4
2016-Jul-21 12:00S 40°53' E 028°44'3 0.5 1014.4 11.4
2016-Jul-21 06:00S 40°52' E 028°40'1 1.1 1010.9 11.3
2016-Jul-21 05:00S 40°51' E 028°39'0 0.2 1009.7 11.3
2016-Jul-21 04:00S 40°51' E 028°39'1 0.6 1008.8 11.2
2016-Jul-21 03:00S 40°51' E 028°38'0 0.1 1007.7 11.2
2016-Jul-21 01:00S 40°51' E 028°38'6 1.1 1006.9 11.1
2016-Jul-20 20:00S 40°56' E 028°35'4 1.9 999.3 11.0
2016-Jul-20 18:00S 40°59' E 028°32'1 1.3 993.0 10.9
2016-Jul-20 17:00S 40°60' E 028°31'1 1.2 989.7 10.9
2016-Jul-20 16:00S 40°59' E 028°29'2 1.8 989.2 11.0
2016-Jul-20 15:00S 40°58' E 028°28'0 0.4 991.7 11.0
2016-Jul-20 14:00S 40°58' E 028°29'1 0.7 994.3 11.0
2016-Jul-20 12:00S 40°56' E 028°29'3 0.7 1000.9 11.0
2016-Jul-20 08:00S 40°54' E 028°31'1 0.6 1010.5 11.1
2016-Jul-20 06:00S 40°54' E 028°33'0 0.0 1012.1 11.1
2016-Jul-20 04:00S 40°54' E 028°33'0 0.4 1012.6 11.1
2016-Jul-20 03:00S 40°54' E 028°32'1 1.4 1013.0 11.2
2016-Jul-20 02:00S 40°55' E 028°32'0 0.0 1013.4 11.1
2016-Jul-20 01:00S 40°55' E 028°32'3 3.2 1013.7 11.1
2016-Jul-20 00:00S 40°57' E 028°28'0 0.1 1013.9 11.1
2016-Jul-19 20:00S 40°56' E 028°29'2 1.1 1012.2 11.1
2016-Jul-19 18:00S 40°57' E 028°26'0 0.1 1010.2 11.0
2016-Jul-19 17:00S 40°57' E 028°25'0 0.3 1008.7 11.0
2016-Jul-19 16:00S 40°57' E 028°25'1 0.3 1007.5 11.0
2016-Jul-19 14:00S 40°56' E 028°26'1 0.5 1005.2 10.9
2016-Jul-19 12:00S 40°57' E 028°26'5 1.3 1003.4 10.9
2016-Jul-19 08:00S 41°02' E 028°24'2 1.2 1002.3 11.0
2016-Jul-19 06:00S 41°02' E 028°21'0 0.2 1000.8 11.0
2016-Jul-19 05:00S 41°02' E 028°21'2 2.1 999.8 11.0
2016-Jul-19 04:00S 41°01' E 028°19'4 4.4 999.7 11.0
2016-Jul-19 03:00S 40°58' E 028°15'3 3.4 999.7 10.9
2016-Jul-19 02:00S 41°01' E 028°17'5 2.6 1000.7 11.2
2016-Jul-19 00:00S 40°56' E 028°14'1 0.2 1002.9 12.1
2016-Jul-18 21:00S 40°56' E 028°13'1 0.4 1006.7 11.9
2016-Jul-18 19:00S 40°55' E 028°12'1 1.2 1009.0 11.1
2016-Jul-18 18:00S 40°55' E 028°11'0 0.2 1009.8 11.2
2016-Jul-18 17:00S 40°55' E 028°11'1 0.9 1010.5 11.2
2016-Jul-18 16:00S 40°54' E 028°10'3 0.9 1011.1 11.2
2016-Jul-18 13:00S 40°53' E 028°06'0 0.0 1012.3 11.4
2016-Jul-18 12:00S 40°53' E 028°06'7 1.8 1012.9 12.1
2016-Jul-18 08:00S 40°47' E 028°01'0 0.4 1015.6 12.3
2016-Jul-18 07:00S 40°48' E 028°01'0 0.0 1016.2 12.2
2016-Jul-18 06:00S 40°48' E 028°01'1 1.2 1017.0 12.2
2016-Jul-18 05:00S 40°46' E 028°01'1 0.8 1017.4 12.3
2016-Jul-18 04:00S 40°46' E 028°00'2 2.2 1017.6 12.4
2016-Jul-18 03:00S 40°44' E 027°58'0 0.0 1018.7 12.5
2016-Jul-18 00:00S 40°44' E 027°58'   1022.5 12.5
Track history (hours):
 
Tides and Currents Weather Stations Pressure Air Temp Water Temp Dewpoint Dewpoint Depression Visibility Wind Speed Wind Dir Waves Ship Positions

Drifting buoy 17652

Last reported at 2016-Jul-28 00:00 UTC. Time now 2016-Jul-28 01:00 UTC.
Position S 41°27' E 028°02'.

Barometer 1021.7 mb
Water temperature 10.8 ° C

Date/timePositionNaut miles runAvg speedWind from/ knotsBaromVisibWave heightAir tempDewpointWater temp
2016-Jul-28 00:00S 41°27' E 028°02'2 0.5 1021.7 10.8
2016-Jul-27 21:00S 41°28' E 028°04'2 1.0 1024.4 10.8
2016-Jul-27 19:00S 41°28' E 028°07'3 1.5 1026.2 10.5
2016-Jul-27 17:00S 41°28' E 028°11'0 0.3 1027.1 10.7
2016-Jul-27 16:00S 41°28' E 028°11'4 2.1 1027.4 10.6
2016-Jul-27 14:00S 41°27' E 028°16'0 0.0 1028.0 10.5
2016-Jul-27 12:00S 41°27' E 028°16'6 1.2 1028.5 10.4
2016-Jul-27 07:00S 41°25' E 028°24'3 2.7 1032.1 10.9
2016-Jul-27 06:00S 41°24' E 028°27'0 0.0 1032.3 10.9
2016-Jul-27 05:00S 41°24' E 028°27'1 0.6 1032.5 11.0
2016-Jul-27 04:00S 41°24' E 028°27'3 3.1 1032.4 10.8
2016-Jul-27 03:00S 41°22' E 028°31'0 0.0 1032.7 10.9
2016-Jul-27 02:00S 41°22' E 028°31'3 0.6 1032.9 10.9
2016-Jul-26 21:00S 41°20' E 028°33'2 2.2 1035.2 12.4
2016-Jul-26 20:00S 41°18' E 028°36'1 1.1 1035.5 13.1
2016-Jul-26 19:00S 41°17' E 028°36'4 1.2 1036.1 13.2
2016-Jul-26 16:00S 41°15' E 028°40'2 1.2 1036.6 13.4
2016-Jul-26 14:00S 41°13' E 028°42'0 0.0 1036.6 13.4
2016-Jul-26 13:00S 41°13' E 028°42'4 0.7 1036.4 13.4
2016-Jul-26 07:00S 41°12' E 028°48'2 1.7 1039.1 13.5
2016-Jul-26 06:00S 41°11' E 028°50'1 1.3 1038.9 13.5
2016-Jul-26 05:00S 41°11' E 028°52'0 0.0 1039.3 13.6
2016-Jul-26 04:00S 41°11' E 028°52'0 0.2 1039.6 13.6
2016-Jul-26 03:00S 41°11' E 028°52'1 0.3 1039.5 13.6
2016-Jul-26 00:00S 41°10' E 028°53'2 2.3 1040.2 13.7
2016-Jul-25 23:00S 41°10' E 028°56'2 1.7 1040.7 13.6
2016-Jul-25 22:00S 41°10' E 028°54'2 0.8 1041.0 13.6
2016-Jul-25 20:00S 41°10' E 028°56'3 0.9 1041.2 13.4
2016-Jul-25 17:00S 41°08' E 028°59'1 0.5 1041.4 13.3
2016-Jul-25 16:00S 41°09' E 028°59'5 5.1 1041.3 13.3
2016-Jul-25 15:00S 41°06' E 029°05'0 0.0 1040.9 13.3
2016-Jul-25 14:00S 41°06' E 029°05'0 0.0 1040.9 13.3
2016-Jul-25 13:00S 41°06' E 029°05'0 0.0 1040.8 13.4
2016-Jul-25 11:00S 41°06' E 029°05'0 0.0 1041.1 13.4
2016-Jul-25 08:00S 41°06' E 029°05'1 1.1 1040.8 13.3
2016-Jul-25 07:00S 41°05' E 029°06'0 0.5 1040.3 13.4
2016-Jul-25 06:00S 41°05' E 029°07'1 1.3 1039.6 13.4
2016-Jul-25 05:00S 41°05' E 029°08'1 0.6 1038.8 13.5
2016-Jul-25 03:00S 41°04' E 029°10'1 0.3 1037.5 13.5
2016-Jul-25 00:00S 41°04' E 029°11'1 1.2 1036.2 13.6
2016-Jul-24 23:00S 41°04' E 029°12'0 0.1 1035.6 13.7
2016-Jul-24 19:00S 41°04' E 029°12'1 0.5 1033.4 13.7
2016-Jul-24 17:00S 41°05' E 029°13'0 0.4 1031.5 13.7
2016-Jul-24 16:00S 41°05' E 029°13'1 0.4 1030.7 13.6
2016-Jul-24 14:00S 41°06' E 029°12'0 0.0 1028.7 13.6
2016-Jul-24 13:00S 41°06' E 029°12'3 1.3 1027.9 13.6
2016-Jul-24 11:00S 41°07' E 029°09'0 0.0 1026.9 13.4
2016-Jul-24 08:00S 41°07' E 029°09'1 0.2 1025.4 13.4
2016-Jul-24 05:00S 41°08' E 029°09'1 0.7 1022.6 13.5
2016-Jul-24 04:00S 41°08' E 029°10'0 0.5 1021.7 13.5
2016-Jul-24 03:00S 41°08' E 029°09'1 0.5 1020.9 13.5
2016-Jul-24 02:00S 41°09' E 029°09'0 0.0 1020.3 13.5
2016-Jul-24 01:00S 41°09' E 029°09'1 1.2 1020.0 13.5
2016-Jul-24 00:00S 41°09' E 029°08'2 2.2 1019.9 13.5
2016-Jul-23 23:00S 41°08' E 029°05'1 0.3 1019.7 13.4
2016-Jul-23 19:00S 41°08' E 029°03'1 1.0 1019.1 13.1
2016-Jul-23 18:00S 41°08' E 029°02'1 0.9 1018.9 13.1
2016-Jul-23 17:00S 41°08' E 029°01'0 0.4 1018.4 13.1
2016-Jul-23 16:00S 41°08' E 029°01'1 0.3 1017.7 13.0
2016-Jul-23 14:00S 41°08' E 028°60'0 0.0 1016.4 12.9
2016-Jul-23 13:00S 41°08' E 028°60'0 0.2 1015.9 12.9
2016-Jul-23 12:00S 41°08' E 029°00'0 0.0 1015.1 13.0
2016-Jul-23 11:00S 41°08' E 029°00'4 0.9 1014.7 13.1
2016-Jul-23 07:00S 41°11' E 029°01'0 0.2 1012.3 13.2
2016-Jul-23 05:00S 41°12' E 029°01'1 0.9 1010.3 13.2
2016-Jul-23 04:00S 41°12' E 029°00'1 0.8 1009.4 13.2
2016-Jul-23 03:00S 41°13' E 029°00'1 1.3 1008.5 13.3
2016-Jul-23 02:00S 41°13' E 028°59'0 0.0 1008.3 13.3
2016-Jul-23 01:00S 41°13' E 028°59'3 1.4 1008.2 13.3
2016-Jul-22 23:00S 41°13' E 028°55'0 0.0 1007.7 13.4
2016-Jul-22 21:00S 41°13' E 028°55'3 1.6 1008.2 13.5
2016-Jul-22 19:00S 41°10' E 028°54'0 0.0 1008.7 13.5
2016-Jul-22 18:00S 41°10' E 028°54'3 0.9 1008.8 13.5
2016-Jul-22 15:00S 41°07' E 028°53'1 1.1 1009.6 13.5
2016-Jul-22 14:00S 41°06' E 028°52'2 1.8 1010.2 13.5
2016-Jul-22 13:00S 41°05' E 028°52'0 0.2 1010.7 13.4
2016-Jul-22 12:00S 41°05' E 028°52'4 0.9 1010.9 13.3
2016-Jul-22 07:00S 41°01' E 028°50'3 1.4 1013.8 12.3
2016-Jul-22 05:00S 40°58' E 028°48'0 0.0 1014.1 11.7
2016-Jul-22 04:00S 40°58' E 028°48'1 1.3 1014.0 11.5
2016-Jul-22 03:00S 40°57' E 028°47'1 1.0 1014.0 11.5
2016-Jul-22 02:00S 40°57' E 028°46'3 0.9 1014.2 11.5
2016-Jul-21 23:00S 40°54' E 028°45'2 0.8 1015.4 11.5
2016-Jul-21 21:00S 40°53' E 028°46'0 0.0 1015.6 11.6
2016-Jul-21 20:00S 40°53' E 028°46'0 0.1 1016.2 11.5
2016-Jul-21 18:00S 40°53' E 028°46'0 0.0 1016.3 11.5
2016-Jul-21 17:00S 40°53' E 028°46'1 0.8 1016.1 11.4
2016-Jul-21 16:00S 40°52' E 028°46'0 0.4 1015.8 11.4
2016-Jul-21 15:00S 40°52' E 028°45'0 0.0 1015.5 11.4
2016-Jul-21 14:00S 40°52' E 028°45'1 1.0 1014.9 11.4
2016-Jul-21 13:00S 40°53' E 028°44'0 0.1 1014.7 11.4
2016-Jul-21 12:00S 40°53' E 028°44'3 0.5 1014.4 11.4
2016-Jul-21 06:00S 40°52' E 028°40'1 1.1 1010.9 11.3
2016-Jul-21 05:00S 40°51' E 028°39'0 0.2 1009.7 11.3
2016-Jul-21 04:00S 40°51' E 028°39'1 0.6 1008.8 11.2
2016-Jul-21 03:00S 40°51' E 028°38'0 0.1 1007.7 11.2
2016-Jul-21 01:00S 40°51' E 028°38'6 1.1 1006.9 11.1
2016-Jul-20 20:00S 40°56' E 028°35'4 1.9 999.3 11.0
2016-Jul-20 18:00S 40°59' E 028°32'1 1.3 993.0 10.9
2016-Jul-20 17:00S 40°60' E 028°31'1 1.2 989.7 10.9
2016-Jul-20 16:00S 40°59' E 028°29'2 1.8 989.2 11.0
2016-Jul-20 15:00S 40°58' E 028°28'0 0.4 991.7 11.0
2016-Jul-20 14:00S 40°58' E 028°29'1 0.7 994.3 11.0
2016-Jul-20 12:00S 40°56' E 028°29'3 0.7 1000.9 11.0
2016-Jul-20 08:00S 40°54' E 028°31'1 0.6 1010.5 11.1
2016-Jul-20 06:00S 40°54' E 028°33'0 0.0 1012.1 11.1
2016-Jul-20 04:00S 40°54' E 028°33'0 0.4 1012.6 11.1
2016-Jul-20 03:00S 40°54' E 028°32'1 1.4 1013.0 11.2
2016-Jul-20 02:00S 40°55' E 028°32'0 0.0 1013.4 11.1
2016-Jul-20 01:00S 40°55' E 028°32'3 3.2 1013.7 11.1
2016-Jul-20 00:00S 40°57' E 028°28'0 0.1 1013.9 11.1
2016-Jul-19 20:00S 40°56' E 028°29'2 1.1 1012.2 11.1
2016-Jul-19 18:00S 40°57' E 028°26'0 0.1 1010.2 11.0
2016-Jul-19 17:00S 40°57' E 028°25'0 0.3 1008.7 11.0
2016-Jul-19 16:00S 40°57' E 028°25'1 0.3 1007.5 11.0
2016-Jul-19 14:00S 40°56' E 028°26'1 0.5 1005.2 10.9
2016-Jul-19 12:00S 40°57' E 028°26'5 1.3 1003.4 10.9
2016-Jul-19 08:00S 41°02' E 028°24'2 1.2 1002.3 11.0
2016-Jul-19 06:00S 41°02' E 028°21'0 0.2 1000.8 11.0
2016-Jul-19 05:00S 41°02' E 028°21'2 2.1 999.8 11.0
2016-Jul-19 04:00S 41°01' E 028°19'4 4.4 999.7 11.0
2016-Jul-19 03:00S 40°58' E 028°15'3 3.4 999.7 10.9
2016-Jul-19 02:00S 41°01' E 028°17'5 2.6 1000.7 11.2
2016-Jul-19 00:00S 40°56' E 028°14'1 0.2 1002.9 12.1
2016-Jul-18 21:00S 40°56' E 028°13'1 0.4 1006.7 11.9
2016-Jul-18 19:00S 40°55' E 028°12'1 1.2 1009.0 11.1
2016-Jul-18 18:00S 40°55' E 028°11'0 0.2 1009.8 11.2
2016-Jul-18 17:00S 40°55' E 028°11'1 0.9 1010.5 11.2
2016-Jul-18 16:00S 40°54' E 028°10'3 0.9 1011.1 11.2
2016-Jul-18 13:00S 40°53' E 028°06'0 0.0 1012.3 11.4
2016-Jul-18 12:00S 40°53' E 028°06'7 1.8 1012.9 12.1
2016-Jul-18 08:00S 40°47' E 028°01'0 0.4 1015.6 12.3
2016-Jul-18 07:00S 40°48' E 028°01'0 0.0 1016.2 12.2
2016-Jul-18 06:00S 40°48' E 028°01'1 1.2 1017.0 12.2
2016-Jul-18 05:00S 40°46' E 028°01'1 0.8 1017.4 12.3
2016-Jul-18 04:00S 40°46' E 028°00'2 2.2 1017.6 12.4
2016-Jul-18 03:00S 40°44' E 027°58'0 0.0 1018.7 12.5
2016-Jul-18 00:00S 40°44' E 027°58'   1022.5 12.5

Dump ship's entire track history